Saint Wolfgang, Austria

8:00 PM CEST on July 26, 2016 (GMT +0200)
Unterach | | Change Station

Elev 1801 ft 47.81 °N, 13.48 °E | Updated 9 minutes ago

Partly Cloudy
Partly Cloudy
72.8 °F
Feels Like 74 °F
N
0.0
Wind Variable Wind from South
Gusts 7.0 mph

Today
High -- | Low -- °F
--% Chance of Precip.
Yesterday
High -- | Low -- °F
Precip. -- in
Pressure 30.09 in
Visibility 6.2 miles
Clouds Few 3600 ft
Few 4000 ft
Heat Index 74 °F
Dew Point 65 °F
Humidity 77%
Rainfall 0.17 in
Snow Depth Not available.
5:36 AM 8:48 PM
Waning Gibbous, 52% visible
METAR LOWS 261750Z 34006KT 9999 FEW036 FEW040CB 23/17 Q1019 NOSIG
Pressure 30.09 in
Visibility 6.2 miles
Clouds Few 3600 ft
Few 4000 ft
Heat Index 74 °F
Dew Point 65 °F
Humidity 77%
Rainfall 0.17 in
Snow Depth Not available.
5:36 AM 8:48 PM
Waning Gibbous, 52% visible
METAR LOWS 261750Z 34006KT 9999 FEW036 FEW040CB 23/17 Q1019 NOSIG

10-Day Weather Forecast

×

Almanac

Astronomy

Jul. 26, 2016 Rise Set
Actual Time
Civil Twilight
Nautical Twilight
Astronomical Twilight
Moon
Length of Visible Light
Length of Day
Tomorrow will be .
, % of the Moon is Illuminated

Today's Extremes

Country Highs Country Lows

Community

WunderPhotos

Upload Photos

1,927,650 photos uploaded!

WunderBlog® & News

Nearby

Air Quality

  Air Quality AQ Index Pollutant
Not available.

Snow Depth

Station Depth Elevation

Earthquake Activity

City Distance Mag. Time & Date
Minimum magnitude displayed is 2.5.

Coastal Water Temperatures

Place Temperature

Stations

Nearby Weather Stations

Station Location Temp. Windchill Dew Point Humidity Wind Precip. Elev Updated Type